sensor_id;sensor_type;location;lat;lon;timestamp;pressure;altitude;pressure_sealevel;temperature;humidity
77631;BME280;66798;47.370;8.552;2023-09-19T04:45:54;96674.88;;;17.85;67.14
77631;BME280;66798;47.370;8.552;2023-09-19T04:48:22;96676.59;;;17.81;67.61
77631;BME280;66798;47.370;8.552;2023-09-19T04:50:49;96674.09;;;17.85;67.89
77631;BME280;66798;47.370;8.552;2023-09-19T04:53:15;96682.69;;;17.81;68.56
77631;BME280;66798;47.370;8.552;2023-09-19T04:55:40;96677.03;;;17.74;67.24
77631;BME280;66798;47.370;8.552;2023-09-19T04:58:06;96693.44;;;17.68;67.98
77631;BME280;66798;47.370;8.552;2023-09-19T05:00:31;96697.50;;;17.65;69.00
77631;BME280;66798;47.370;8.552;2023-09-19T05:03:00;96704.09;;;17.68;68.32
77631;BME280;66798;47.370;8.552;2023-09-19T05:05:26;96698.47;;;17.78;67.87
77631;BME280;66798;47.370;8.552;2023-09-19T05:07:52;96704.59;;;17.78;68.20
77631;BME280;66798;47.370;8.552;2023-09-19T05:10:19;96716.63;;;17.76;67.81
77631;BME280;66798;47.370;8.552;2023-09-19T05:12:45;96711.63;;;17.74;68.76
77631;BME280;66798;47.370;8.552;2023-09-19T05:15:13;96721.97;;;17.76;68.96
77631;BME280;66798;47.370;8.552;2023-09-19T05:17:40;96726.31;;;17.72;69.78
77631;BME280;66798;47.370;8.552;2023-09-19T05:20:06;96730.06;;;17.71;70.68
77631;BME280;66798;47.370;8.552;2023-09-19T05:22:43;96734.59;;;17.61;71.59
77631;BME280;66798;47.370;8.552;2023-09-19T05:25:12;96737.84;;;17.58;71.30
77631;BME280;66798;47.370;8.552;2023-09-19T05:27:42;96740.38;;;17.63;71.17
77631;BME280;66798;47.370;8.552;2023-09-19T05:30:09;96743.97;;;17.68;71.90
77631;BME280;66798;47.370;8.552;2023-09-19T05:32:35;96746.66;;;17.68;71.90
77631;BME280;66798;47.370;8.552;2023-09-19T05:35:00;96742.28;;;17.72;72.43
77631;BME280;66798;47.370;8.552;2023-09-19T05:37:26;96728.31;;;17.66;71.30
77631;BME280;66798;47.370;8.552;2023-09-19T05:39:52;96740.25;;;17.69;71.83
77631;BME280;66798;47.370;8.552;2023-09-19T05:42:19;96739.91;;;17.70;71.92
77631;BME280;66798;47.370;8.552;2023-09-19T05:44:44;96743.34;;;17.62;71.67
77631;BME280;66798;47.370;8.552;2023-09-19T05:47:10;96751.47;;;17.66;71.48
77631;BME280;66798;47.370;8.552;2023-09-19T05:49:35;96745.69;;;17.63;70.79
77631;BME280;66798;47.370;8.552;2023-09-19T05:52:07;96747.91;;;17.70;70.75
77631;BME280;66798;47.370;8.552;2023-09-19T05:54:33;96756.84;;;17.74;70.58
77631;BME280;66798;47.370;8.552;2023-09-19T05:57:02;96758.09;;;17.77;70.75
77631;BME280;66798;47.370;8.552;2023-09-19T05:59:27;96757.47;;;17.80;70.88
77631;BME280;66798;47.370;8.552;2023-09-19T06:01:53;96761.25;;;17.79;70.80
77631;BME280;66798;47.370;8.552;2023-09-19T06:04:18;96770.22;;;17.92;70.95
77631;BME280;66798;47.370;8.552;2023-09-19T06:06:47;96768.66;;;17.91;70.38
77631;BME280;66798;47.370;8.552;2023-09-19T06:09:13;96764.13;;;17.91;70.33
77631;BME280;66798;47.370;8.552;2023-09-19T06:11:41;96760.69;;;17.99;70.59
77631;BME280;66798;47.370;8.552;2023-09-19T06:14:07;96758.81;;;18.00;70.31
77631;BME280;66798;47.370;8.552;2023-09-19T06:16:33;96762.75;;;18.02;70.04
77631;BME280;66798;47.370;8.552;2023-09-19T06:18:58;96765.41;;;18.02;69.43
77631;BME280;66798;47.370;8.552;2023-09-19T06:21:26;96764.28;;;18.03;69.79
77631;BME280;66798;47.370;8.552;2023-09-19T06:23:53;96773.56;;;18.15;70.42
77631;BME280;66798;47.370;8.552;2023-09-19T06:26:19;96766.69;;;18.31;70.18
77631;BME280;66798;47.370;8.552;2023-09-19T06:28:44;96769.66;;;18.56;68.61
77631;BME280;66798;47.370;8.552;2023-09-19T06:31:10;96770.63;;;18.51;69.08
77631;BME280;66798;47.370;8.552;2023-09-19T06:33:39;96766.84;;;18.43;68.00
77631;BME280;66798;47.370;8.552;2023-09-19T06:36:07;96767.94;;;18.51;68.95
77631;BME280;66798;47.370;8.552;2023-09-19T06:38:33;96772.03;;;18.49;67.88
77631;BME280;66798;47.370;8.552;2023-09-19T06:41:02;96775.00;;;18.47;68.73
77631;BME280;66798;47.370;8.552;2023-09-19T06:43:32;96778.44;;;18.65;68.85
77631;BME280;66798;47.370;8.552;2023-09-19T06:45:59;96771.53;;;18.73;68.65
77631;BME280;66798;47.370;8.552;2023-09-19T06:48:25;96771.09;;;18.62;68.32
77631;BME280;66798;47.370;8.552;2023-09-19T06:50:53;96782.88;;;18.78;68.44
